Time;durP1;ratioP1;P1;durP2;ratioP2;P2;SDS_P1;SDS_P2;PMS_P1;PMS_P2;Temp;Humidity;BMP_temperature;BMP_pressure;BME280_temperature;BME280_humidity;BME280_pressure;Samples;Min_cycle;Max_cycle;Signal;HPM_P1;HPM_P2
2021/01/29 00:01:02;;;;;;;;;;;9.50;99.90;;;;;;10531946;28;19978;-68
2021/01/29 00:06:04;;;;;;;;;;;9.70;99.90;;;;;;10532369;28;19924;-68
2021/01/29 00:11:06;;;;;;;;;;;9.80;99.90;;;;;;10531722;28;20025;-68
2021/01/29 00:16:08;;;;;;;;;;;9.80;99.90;;;;;;10530097;28;20285;-68
2021/01/29 00:21:10;;;;;;;;;;;9.90;99.90;;;;;;10529967;28;20645;-68
2021/01/29 00:26:13;;;;;;;;;;;10.00;99.90;;;;;;10530947;28;20289;-68
2021/01/29 00:31:14;;;;;;;;;;;10.00;99.90;;;;;;10529818;28;19966;-68
2021/01/29 00:36:16;;;;;;;;;;;10.00;99.90;;;;;;10530887;28;19924;-68
2021/01/29 00:41:21;;;;;;;;;;;10.00;99.90;;;;;;10530225;28;20360;-68
2021/01/29 00:46:22;;;;;;;;;;;10.00;99.90;;;;;;10529795;28;20334;-68
2021/01/29 00:51:24;;;;;;;;;;;10.00;99.90;;;;;;10530403;28;20018;-68
2021/01/29 00:56:26;;;;;;;;;;;10.10;99.90;;;;;;10530425;28;19928;-68
2021/01/29 01:01:28;;;;;;;;;;;10.20;99.90;;;;;;10528521;28;19924;-68
2021/01/29 01:06:29;;;;;;;;;;;10.20;99.90;;;;;;10530028;28;20410;-68
2021/01/29 01:11:30;;;;;;;;;;;10.20;99.90;;;;;;10530233;28;19924;-68
2021/01/29 01:16:32;;;;;;;;;;;10.30;99.90;;;;;;10528756;28;19999;-68
2021/01/29 01:21:34;;;;;;;;;;;10.30;99.90;;;;;;10529615;28;19970;-68
2021/01/29 01:26:35;;;;;;;;;;;9.60;99.90;;;;;;10529311;28;20039;-68
2021/01/29 01:31:36;;;;;;;;;;;9.20;99.90;;;;;;10527330;28;20011;-68
2021/01/29 01:36:38;;;;;;;;;;;9.10;99.90;;;;;;10528316;28;20265;-68
2021/01/29 01:41:39;;;;;;;;;;;9.00;99.90;;;;;;10528909;28;20006;-68
2021/01/29 01:46:41;;;;;;;;;;;8.80;99.90;;;;;;10487275;28;20384;-68
2021/01/29 01:51:48;;;;;;;;;;;8.80;99.90;;;;;;10531735;28;19967;-68
2021/01/29 01:56:51;;;;;;;;;;;8.90;99.90;;;;;;10536417;28;20008;-68
2021/01/29 02:01:53;;;;;;;;;;;9.00;99.90;;;;;;10536831;28;20010;-68
2021/01/29 02:07:02;;;;;;;;;;;9.10;99.90;;;;;;10537460;28;19924;-68
2021/01/29 02:12:03;;;;;;;;;;;9.00;99.90;;;;;;10533870;28;20219;-68
2021/01/29 02:17:24;;;;;;;;;;;9.00;99.90;;;;;;10534722;28;19924;-68
2021/01/29 02:22:28;;;;;;;;;;;9.10;99.90;;;;;;10535947;28;20332;-68
2021/01/29 02:27:29;;;;;;;;;;;9.00;99.90;;;;;;10535456;28;20356;-68
2021/01/29 02:32:49;;;;;;;;;;;8.90;99.90;;;;;;10534661;28;19924;-68
2021/01/29 02:38:10;;;;;;;;;;;8.90;99.90;;;;;;10535305;28;20027;-68
2021/01/29 02:43:19;;;;;;;;;;;9.00;99.90;;;;;;10534488;28;19963;-68
2021/01/29 02:48:30;;;;;;;;;;;9.10;99.90;;;;;;10531932;28;19924;-68
2021/01/29 02:53:31;;;;;;;;;;;9.00;99.90;;;;;;10533952;28;19963;-68
2021/01/29 02:58:48;;;;;;;;;;;8.80;99.90;;;;;;10533879;28;19924;-68
2021/01/29 03:03:54;;;;;;;;;;;8.90;99.90;;;;;;10538304;28;19939;-68
2021/01/29 03:08:59;;;;;;;;;;;8.80;99.90;;;;;;10541815;28;19966;-68
2021/01/29 03:14:08;;;;;;;;;;;8.80;99.90;;;;;;10538345;28;20350;-69
2021/01/29 03:19:18;;;;;;;;;;;8.70;99.90;;;;;;10541891;28;19924;-68
2021/01/29 03:24:24;;;;;;;;;;;8.70;99.90;;;;;;10541503;28;19924;-68
2021/01/29 03:29:29;;;;;;;;;;;8.70;99.90;;;;;;10540712;28;20170;-68
2021/01/29 03:34:34;;;;;;;;;;;8.80;99.90;;;;;;10540782;28;20399;-69
2021/01/29 03:39:37;;;;;;;;;;;8.80;99.90;;;;;;10539573;28;19924;-68
2021/01/29 03:44:45;;;;;;;;;;;8.90;99.90;;;;;;10538979;28;19924;-68
2021/01/29 03:49:53;;;;;;;;;;;9.00;99.90;;;;;;10540077;28;19924;-68
2021/01/29 03:55:17;;;;;;;;;;;9.00;99.90;;;;;;10540335;28;19956;-68
2021/01/29 04:00:22;;;;;;;;;;;9.10;99.90;;;;;;10538084;28;20002;-68
2021/01/29 04:05:32;;;;;;;;;;;9.10;99.90;;;;;;10533371;28;20026;-69
2021/01/29 04:10:34;;;;;;;;;;;9.10;99.90;;;;;;10532131;28;20280;-68
2021/01/29 04:15:38;;;;;;;;;;;9.00;99.90;;;;;;10530955;28;19963;-68
2021/01/29 04:20:42;;;;;;;;;;;9.00;99.90;;;;;;10531523;28;20288;-68
2021/01/29 04:25:45;;;;;;;;;;;9.00;99.90;;;;;;10531694;28;19924;-68
2021/01/29 04:30:50;;;;;;;;;;;9.10;99.90;;;;;;10530922;28;19981;-68
2021/01/29 04:35:52;;;;;;;;;;;9.10;99.90;;;;;;10531054;28;20376;-68
2021/01/29 04:41:02;;;;;;;;;;;9.00;99.90;;;;;;10531229;28;20335;-68
2021/01/29 04:46:14;;;;;;;;;;;9.00;99.90;;;;;;10530482;28;19962;-69
2021/01/29 04:51:35;;;;;;;;;;;9.10;99.90;;;;;;10530629;28;19950;-68
2021/01/29 04:56:52;;;;;;;;;;;8.90;99.90;;;;;;10530386;28;20324;-68
2021/01/29 05:02:02;;;;;;;;;;;8.80;99.90;;;;;;10529963;28;19955;-69
2021/01/29 05:07:07;;;;;;;;;;;8.90;99.90;;;;;;10528911;28;20368;-68
2021/01/29 05:12:08;;;;;;;;;;;9.10;99.90;;;;;;10530463;28;19971;-68
2021/01/29 05:17:37;;;;;;;;;;;9.00;99.90;;;;;;10529748;28;19985;-68
2021/01/29 05:22:57;;;;;;;;;;;8.80;99.90;;;;;;10528411;28;19931;-68
2021/01/29 05:28:17;;;;;;;;;;;8.80;99.90;;;;;;10529285;28;20343;-68
2021/01/29 05:33:19;;;;;;;;;;;8.90;99.90;;;;;;10529292;28;19924;-68
2021/01/29 05:38:31;;;;;;;;;;;9.00;99.90;;;;;;10530248;28;19978;-68
2021/01/29 05:43:56;;;;;;;;;;;8.80;99.90;;;;;;10529814;28;19982;-68
2021/01/29 05:49:04;;;;;;;;;;;8.80;99.90;;;;;;10529364;28;20372;-68
2021/01/29 05:54:20;;;;;;;;;;;8.80;99.90;;;;;;10529332;28;19979;-68
2021/01/29 05:59:34;;;;;;;;;;;8.80;99.90;;;;;;10529219;28;20312;-68
2021/01/29 06:05:08;;;;;;;;;;;8.80;99.90;;;;;;10529013;28;19943;-68
2021/01/29 06:10:32;;;;;;;;;;;8.50;99.90;;;;;;10505384;28;20414;-68
2021/01/29 06:15:52;;;;;;;;;;;8.60;99.90;;;;;;10528231;28;19924;-68
2021/01/29 06:21:03;;;;;;;;;;;8.80;99.90;;;;;;10528820;28;20052;-68
2021/01/29 06:26:24;;;;;;;;;;;8.90;99.90;;;;;;10527240;28;20441;-68
2021/01/29 06:31:28;;;;;;;;;;;8.90;99.90;;;;;;10526080;28;19924;-68
2021/01/29 06:36:58;;;;;;;;;;;8.80;99.90;;;;;;10527745;28;20411;-68
2021/01/29 06:42:14;;;;;;;;;;;8.80;99.90;;;;;;10535812;28;19924;-67
2021/01/29 06:47:43;;;;;;;;;;;8.80;99.90;;;;;;10535180;28;20412;-67
2021/01/29 06:52:59;;;;;;;;;;;8.90;99.90;;;;;;10526788;28;19973;-67
2021/01/29 06:58:44;;;;;;;;;;;9.20;99.90;;;;;;10534205;28;19969;-67
2021/01/29 07:03:45;;;;;;;;;;;9.30;99.90;;;;;;10522660;28;19971;-67
2021/01/29 07:09:05;;;;;;;;;;;9.40;99.90;;;;;;10534762;28;20718;-68
2021/01/29 07:14:10;;;;;;;;;;;9.50;99.90;;;;;;10534255;28;20155;-67
2021/01/29 07:19:17;;;;;;;;;;;9.50;99.90;;;;;;10534496;28;19963;-68
2021/01/29 07:24:22;;;;;;;;;;;9.60;99.90;;;;;;10534154;28;19931;-68
2021/01/29 07:29:30;;;;;;;;;;;9.60;99.90;;;;;;10531773;28;19928;-67
2021/01/29 07:34:34;;;;;;;;;;;9.60;99.90;;;;;;10533835;28;19963;-67
2021/01/29 07:39:54;;;;;;;;;;;9.60;99.90;;;;;;10533903;28;19966;-67
2021/01/29 07:44:56;;;;;;;;;;;9.60;99.90;;;;;;10531842;28;19981;-68
2021/01/29 07:50:04;;;;;;;;;;;9.60;99.90;;;;;;10533210;28;19928;-68
2021/01/29 07:55:26;;;;;;;;;;;9.50;99.90;;;;;;10532846;28;19966;-67
2021/01/29 08:00:30;;;;;;;;;;;9.60;99.90;;;;;;10532412;28;19924;-68
2021/01/29 08:05:36;;;;;;;;;;;9.60;99.90;;;;;;10533188;28;19924;-68
2021/01/29 08:10:39;;;;;;;;;;;9.60;99.90;;;;;;10530710;28;20366;-68
2021/01/29 08:15:59;;;;;;;;;;;9.70;99.90;;;;;;10531443;28;19928;-69
2021/01/29 08:21:19;;;;;;;;;;;9.60;99.90;;;;;;10532361;28;19931;-68
2021/01/29 08:26:30;;;;;;;;;;;9.70;99.90;;;;;;10532032;28;19924;-69
2021/01/29 08:31:50;;;;;;;;;;;9.70;99.90;;;;;;10530856;28;19924;-68
2021/01/29 08:37:10;;;;;;;;;;;9.80;99.90;;;;;;10531998;28;19942;-68
2021/01/29 08:42:17;;;;;;;;;;;9.70;99.90;;;;;;10531400;28;19924;-68
2021/01/29 08:47:28;;;;;;;;;;;9.80;99.90;;;;;;10530721;28;20217;-68
2021/01/29 08:52:49;;;;;;;;;;;9.90;99.90;;;;;;10530509;28;20359;-68
2021/01/29 08:58:00;;;;;;;;;;;9.90;99.90;;;;;;10530740;28;19924;-68
2021/01/29 09:03:20;;;;;;;;;;;9.90;99.90;;;;;;10529740;28;19964;-69
2021/01/29 09:08:22;;;;;;;;;;;10.10;99.90;;;;;;10530558;28;20015;-68
2021/01/29 09:13:24;;;;;;;;;;;10.20;99.90;;;;;;10529888;28;20426;-68
2021/01/29 09:18:26;;;;;;;;;;;10.40;99.90;;;;;;10528599;28;19997;-68
2021/01/29 09:23:32;;;;;;;;;;;10.40;99.90;;;;;;10529867;28;19934;-68
2021/01/29 09:28:36;;;;;;;;;;;10.60;99.90;;;;;;10529449;28;20010;-68
2021/01/29 09:34:06;;;;;;;;;;;10.70;99.90;;;;;;10529399;28;19974;-69
2021/01/29 09:39:21;;;;;;;;;;;10.80;99.90;;;;;;10520864;28;19994;-68
2021/01/29 09:44:33;;;;;;;;;;;11.00;99.90;;;;;;10529347;28;19928;-68
2021/01/29 09:49:35;;;;;;;;;;;11.10;99.90;;;;;;10529084;28;20015;-68
2021/01/29 09:55:03;;;;;;;;;;;11.10;99.90;;;;;;10529581;28;19932;-68
2021/01/29 10:00:14;;;;;;;;;;;11.10;99.90;;;;;;10526633;28;19977;-68
2021/01/29 10:05:29;;;;;;;;;;;10.90;99.90;;;;;;10529327;28;19967;-69
2021/01/29 10:10:37;;;;;;;;;;;10.80;99.90;;;;;;10527661;28;20422;-69
2021/01/29 10:15:39;;;;;;;;;;;10.70;99.90;;;;;;10535701;28;19924;-68
2021/01/29 10:20:42;;;;;;;;;;;10.70;99.90;;;;;;10537060;28;19924;-69
2021/01/29 10:25:43;;;;;;;;;;;10.60;99.90;;;;;;10536704;28;20007;-68
2021/01/29 10:31:06;;;;;;;;;;;10.80;99.90;;;;;;10535512;28;19959;-68
2021/01/29 10:36:18;;;;;;;;;;;10.90;99.90;;;;;;10536289;28;20473;-69
2021/01/29 10:41:22;;;;;;;;;;;10.90;99.90;;;;;;10536134;28;20431;-68
2021/01/29 10:46:42;;;;;;;;;;;10.80;99.90;;;;;;10535465;28;20391;-68
2021/01/29 10:51:47;;;;;;;;;;;10.90;99.90;;;;;;10535722;28;19924;-68
2021/01/29 10:56:54;;;;;;;;;;;10.90;99.90;;;;;;10535891;28;19924;-68
2021/01/29 11:02:00;;;;;;;;;;;10.90;99.90;;;;;;10535161;28;19924;-68
2021/01/29 11:07:01;;;;;;;;;;;10.80;99.90;;;;;;10535362;28;19943;-68
2021/01/29 11:12:06;;;;;;;;;;;10.90;99.90;;;;;;10534812;28;19928;-68
2021/01/29 11:17:20;;;;;;;;;;;11.00;99.90;;;;;;10533654;28;20315;-68
2021/01/29 11:22:22;;;;;;;;;;;11.20;99.90;;;;;;10533770;28;20376;-68
2021/01/29 11:27:42;;;;;;;;;;;11.30;99.90;;;;;;10534175;28;19978;-68
2021/01/29 11:32:50;;;;;;;;;;;11.50;99.90;;;;;;10533544;28;19928;-69
2021/01/29 11:37:55;;;;;;;;;;;11.40;99.90;;;;;;10534079;28;19924;-68
2021/01/29 11:43:02;;;;;;;;;;;11.30;99.90;;;;;;10533636;28;19928;-68
2021/01/29 11:48:10;;;;;;;;;;;11.30;99.90;;;;;;10533291;28;20003;-68
2021/01/29 11:53:24;;;;;;;;;;;11.30;99.90;;;;;;10532029;28;20372;-69
2021/01/29 11:58:47;;;;;;;;;;;11.30;99.90;;;;;;10532725;28;20175;-68
2021/01/29 12:03:53;;;;;;;;;;;11.50;99.90;;;;;;10532872;28;20010;-68
2021/01/29 12:09:09;;;;;;;;;;;11.60;99.90;;;;;;10531406;28;19928;-68
2021/01/29 12:14:14;;;;;;;;;;;11.60;99.90;;;;;;10532066;28;20418;-66
2021/01/29 12:19:22;;;;;;;;;;;11.60;99.90;;;;;;10532589;28;20007;-66
2021/01/29 12:24:37;;;;;;;;;;;11.60;99.90;;;;;;10531743;28;19928;-69
2021/01/29 12:29:48;;;;;;;;;;;11.40;99.90;;;;;;10529217;28;19974;-68
2021/01/29 12:34:51;;;;;;;;;;;11.40;99.90;;;;;;10530665;28;19967;-68
2021/01/29 12:39:54;;;;;;;;;;;11.30;99.90;;;;;;10531261;28;20481;-68
2021/01/29 12:44:57;;;;;;;;;;;11.30;99.90;;;;;;10530425;28;20320;-68
2021/01/29 12:50:17;;;;;;;;;;;11.50;99.90;;;;;;10531174;28;19973;-68
2021/01/29 12:55:27;;;;;;;;;;;11.60;99.90;;;;;;10530632;28;20420;-68
2021/01/29 13:00:38;;;;;;;;;;;11.50;99.90;;;;;;10530260;28;19924;-68
2021/01/29 13:05:45;;;;;;;;;;;11.50;99.90;;;;;;10530534;28;19924;-68
2021/01/29 13:10:58;;;;;;;;;;;11.30;99.90;;;;;;10530121;28;19924;-68
2021/01/29 13:16:18;;;;;;;;;;;11.10;99.90;;;;;;10529573;28;20005;-68
2021/01/29 13:21:26;;;;;;;;;;;11.10;99.90;;;;;;10530257;28;20276;-68
2021/01/29 13:26:40;;;;;;;;;;;10.90;99.90;;;;;;10529864;28;19981;-68
2021/01/29 13:31:43;;;;;;;;;;;10.90;99.90;;;;;;10529279;28;19970;-68
2021/01/29 13:37:03;;;;;;;;;;;10.70;99.90;;;;;;10529543;28;19924;-68
2021/01/29 13:42:11;;;;;;;;;;;10.60;99.90;;;;;;10529843;28;19935;-68
2021/01/29 13:47:17;;;;;;;;;;;10.50;99.90;;;;;;10532667;28;20428;-68
2021/01/29 13:52:19;;;;;;;;;;;10.40;99.90;;;;;;10537681;28;19964;-68
2021/01/29 13:57:20;;;;;;;;;;;10.50;99.90;;;;;;10537869;28;19971;-69
2021/01/29 14:02:27;;;;;;;;;;;10.80;99.90;;;;;;10537397;28;19955;-68
2021/01/29 14:07:28;;;;;;;;;;;10.90;99.90;;;;;;10537973;28;20015;-68
2021/01/29 14:12:30;;;;;;;;;;;10.80;99.90;;;;;;10535856;28;20494;-68
2021/01/29 14:17:37;;;;;;;;;;;10.80;99.90;;;;;;10536415;28;19978;-68
2021/01/29 14:22:58;;;;;;;;;;;10.60;99.90;;;;;;10534592;28;19932;-69
2021/01/29 14:28:12;;;;;;;;;;;10.50;99.90;;;;;;10534168;28;20358;-65
2021/01/29 14:33:14;;;;;;;;;;;10.50;99.90;;;;;;10533262;28;19931;-66
2021/01/29 14:38:18;;;;;;;;;;;10.50;99.90;;;;;;10536257;28;20276;-66
2021/01/29 14:43:22;;;;;;;;;;;10.40;99.90;;;;;;10534767;28;19924;-66
2021/01/29 14:48:25;;;;;;;;;;;10.30;99.90;;;;;;10532424;28;19970;-66
2021/01/29 14:53:36;;;;;;;;;;;10.10;99.90;;;;;;10533963;28;20544;-65
2021/01/29 14:58:50;;;;;;;;;;;10.10;99.90;;;;;;10532671;28;20007;-66
2021/01/29 15:04:07;;;;;;;;;;;10.10;99.90;;;;;;10533966;28;19977;-66
2021/01/29 15:09:10;;;;;;;;;;;10.00;99.90;;;;;;10533531;28;19974;-66
2021/01/29 15:14:30;;;;;;;;;;;9.90;99.90;;;;;;10532790;28;19982;-66
2021/01/29 15:19:34;;;;;;;;;;;10.00;99.90;;;;;;10533772;28;19924;-66
2021/01/29 15:24:37;;;;;;;;;;;10.00;99.90;;;;;;10532764;28;19970;-66
2021/01/29 15:29:46;;;;;;;;;;;10.00;99.90;;;;;;10532447;28;20004;-66
2021/01/29 15:35:05;;;;;;;;;;;10.10;99.90;;;;;;10533084;28;19975;-66
2021/01/29 15:40:15;;;;;;;;;;;10.10;99.90;;;;;;10533348;28;19931;-65
2021/01/29 15:45:29;;;;;;;;;;;10.00;99.90;;;;;;10531343;28;20027;-65
2021/01/29 15:50:50;;;;;;;;;;;9.90;99.90;;;;;;10532486;28;20177;-65
2021/01/29 15:55:51;;;;;;;;;;;10.00;99.90;;;;;;10532870;28;20030;-66
2021/01/29 16:00:53;;;;;;;;;;;10.00;99.90;;;;;;10531973;28;19924;-65
2021/01/29 16:05:55;;;;;;;;;;;10.00;99.90;;;;;;10531766;28;20455;-65
2021/01/29 16:11:23;;;;;;;;;;;10.00;99.90;;;;;;10529407;28;20446;-65
2021/01/29 16:16:26;;;;;;;;;;;10.10;99.90;;;;;;10530875;28;19979;-64
2021/01/29 16:21:32;;;;;;;;;;;10.20;99.90;;;;;;10527438;28;19928;-64
2021/01/29 16:26:35;;;;;;;;;;;10.10;99.90;;;;;;10530115;28;19986;-64
2021/01/29 16:31:39;;;;;;;;;;;10.00;99.90;;;;;;10528877;28;20016;-64
2021/01/29 16:36:46;;;;;;;;;;;10.00;99.90;;;;;;10529067;28;19932;-66
2021/01/29 16:41:48;;;;;;;;;;;10.00;99.90;;;;;;10531689;28;19927;-66
2021/01/29 16:46:50;;;;;;;;;;;10.00;99.90;;;;;;10525661;27;20309;-66
2021/01/29 16:52:03;;;;;;;;;;;10.10;99.90;;;;;;10489066;28;19928;-66
2021/01/29 16:57:09;;;;;;;;;;;10.10;99.90;;;;;;10510051;28;19924;-66
2021/01/29 17:02:21;;;;;;;;;;;10.10;99.90;;;;;;10530589;28;19962;-66
2021/01/29 17:07:35;;;;;;;;;;;10.20;99.90;;;;;;10528392;28;19928;-65
2021/01/29 17:12:36;;;;;;;;;;;10.10;99.90;;;;;;10526342;28;20009;-66
2021/01/29 17:17:39;;;;;;;;;;;10.00;99.90;;;;;;10527538;28;19950;-66
2021/01/29 17:22:43;;;;;;;;;;;9.90;99.90;;;;;;10526500;28;19950;-66
2021/01/29 17:27:44;;;;;;;;;;;9.90;99.90;;;;;;10527242;28;19928;-66
2021/01/29 17:32:45;;;;;;;;;;;9.90;99.90;;;;;;10526665;28;20017;-66
2021/01/29 17:37:48;;;;;;;;;;;9.80;99.90;;;;;;10523751;28;20488;-66
2021/01/29 17:42:50;;;;;;;;;;;9.80;99.90;;;;;;10528519;28;20350;-66
2021/01/29 17:48:00;;;;;;;;;;;9.70;99.90;;;;;;10528136;28;19931;-66
2021/01/29 17:53:01;;;;;;;;;;;9.60;99.90;;;;;;10489472;28;20278;-66
2021/01/29 17:58:15;;;;;;;;;;;9.50;99.90;;;;;;10526735;28;20380;-66
2021/01/29 18:03:17;;;;;;;;;;;9.40;99.90;;;;;;10526737;28;19959;-66
2021/01/29 18:08:32;;;;;;;;;;;9.20;99.90;;;;;;10526436;28;19966;-66
2021/01/29 18:13:40;;;;;;;;;;;9.10;99.90;;;;;;10561337;28;19951;-66
2021/01/29 18:18:42;;;;;;;;;;;9.10;99.90;;;;;;10528272;28;19978;-69
2021/01/29 18:23:44;;;;;;;;;;;9.30;99.90;;;;;;10528054;28;19971;-69
2021/01/29 18:28:46;;;;;;;;;;;9.30;99.90;;;;;;10527132;28;19963;-69
2021/01/29 18:33:47;;;;;;;;;;;9.20;99.90;;;;;;10530490;28;20971;-68
2021/01/29 18:38:49;;;;;;;;;;;9.20;99.90;;;;;;10535533;28;19974;-68
2021/01/29 18:43:52;;;;;;;;;;;9.20;99.90;;;;;;10534478;28;19924;-69
2021/01/29 18:48:55;;;;;;;;;;;9.20;99.90;;;;;;10533451;28;20019;-69
2021/01/29 18:53:57;;;;;;;;;;;9.10;99.90;;;;;;10534825;28;19928;-68
2021/01/29 18:58:59;;;;;;;;;;;9.00;99.90;;;;;;10534692;28;20018;-68
2021/01/29 19:04:00;;;;;;;;;;;8.90;99.90;;;;;;10534133;28;20808;-68
2021/01/29 19:09:02;;;;;;;;;;;8.80;99.90;;;;;;10533148;28;19936;-68
2021/01/29 19:14:04;;;;;;;;;;;8.70;99.90;;;;;;10531437;28;19930;-68
2021/01/29 19:19:05;;;;;;;;;;;8.70;99.90;;;;;;10531032;28;20019;-68
2021/01/29 19:24:07;;;;;;;;;;;8.70;99.90;;;;;;10532586;28;19924;-69
2021/01/29 19:29:08;;;;;;;;;;;8.70;99.90;;;;;;10534004;28;20330;-68
2021/01/29 19:34:11;;;;;;;;;;;8.80;99.90;;;;;;10534432;28;20350;-68
2021/01/29 19:39:12;;;;;;;;;;;9.00;99.90;;;;;;10534518;28;19930;-69
2021/01/29 19:44:14;;;;;;;;;;;9.10;99.90;;;;;;10532882;28;19924;-68
2021/01/29 19:49:15;;;;;;;;;;;9.10;99.90;;;;;;10532408;28;19924;-68
2021/01/29 19:54:16;;;;;;;;;;;9.00;99.90;;;;;;10530166;28;19928;-69
2021/01/29 19:59:18;;;;;;;;;;;8.90;99.90;;;;;;10530495;28;19940;-68
2021/01/29 20:04:19;;;;;;;;;;;8.80;99.90;;;;;;10529929;28;19966;-68
2021/01/29 20:09:22;;;;;;;;;;;8.70;99.90;;;;;;10529970;28;20018;-69
2021/01/29 20:14:23;;;;;;;;;;;8.80;99.90;;;;;;10529343;28;19924;-68
2021/01/29 20:19:25;;;;;;;;;;;8.80;99.90;;;;;;10529882;28;20011;-69
2021/01/29 20:24:26;;;;;;;;;;;8.70;99.90;;;;;;10530590;28;20366;-68
2021/01/29 20:29:27;;;;;;;;;;;8.80;99.90;;;;;;10529309;28;19927;-69
2021/01/29 20:34:28;;;;;;;;;;;8.90;99.90;;;;;;10530089;28;20479;-68
2021/01/29 20:39:33;;;;;;;;;;;9.00;99.90;;;;;;10530138;28;20475;-69
2021/01/29 20:44:35;;;;;;;;;;;8.90;99.90;;;;;;10529860;28;19931;-68
2021/01/29 20:49:37;;;;;;;;;;;8.90;99.90;;;;;;10530456;28;19977;-68
2021/01/29 20:54:39;;;;;;;;;;;9.00;99.90;;;;;;10529440;28;19924;-68
2021/01/29 20:59:40;;;;;;;;;;;8.90;99.90;;;;;;10529461;28;19954;-68
2021/01/29 21:04:42;;;;;;;;;;;9.00;99.90;;;;;;10529647;28;19924;-68
2021/01/29 21:09:43;;;;;;;;;;;9.00;99.90;;;;;;10530453;28;19982;-68
2021/01/29 21:14:44;;;;;;;;;;;9.00;99.90;;;;;;10528032;28;19955;-68
2021/01/29 21:19:46;;;;;;;;;;;9.00;99.90;;;;;;10529646;28;19924;-68
2021/01/29 21:24:47;;;;;;;;;;;9.10;99.90;;;;;;10529769;28;19932;-68
2021/01/29 21:29:48;;;;;;;;;;;9.10;99.90;;;;;;10528443;28;20358;-69
2021/01/29 21:34:50;;;;;;;;;;;9.10;99.90;;;;;;10529322;28;19974;-69
2021/01/29 21:39:51;;;;;;;;;;;9.10;99.90;;;;;;10529476;28;19967;-69
2021/01/29 21:44:52;;;;;;;;;;;9.10;99.90;;;;;;10528431;28;19931;-68
2021/01/29 21:49:54;;;;;;;;;;;9.10;99.90;;;;;;10528956;28;19975;-68
2021/01/29 21:54:55;;;;;;;;;;;9.00;99.90;;;;;;10528586;28;20040;-69
2021/01/29 21:59:56;;;;;;;;;;;8.90;99.90;;;;;;10528468;28;19958;-68
2021/01/29 22:05:02;;;;;;;;;;;9.00;99.90;;;;;;10529053;28;19967;-68
2021/01/29 22:10:05;;;;;;;;;;;8.90;99.90;;;;;;10535861;28;19924;-68
2021/01/29 22:15:07;;;;;;;;;;;8.90;99.90;;;;;;10536448;28;20128;-69
2021/01/29 22:20:09;;;;;;;;;;;8.80;99.90;;;;;;10535623;28;19936;-68
2021/01/29 22:25:11;;;;;;;;;;;8.80;99.90;;;;;;10536211;28;19924;-69
2021/01/29 22:30:13;;;;;;;;;;;8.70;99.90;;;;;;10535791;28;19924;-69
2021/01/29 22:35:15;;;;;;;;;;;8.80;99.90;;;;;;10536424;28;20390;-68
2021/01/29 22:40:24;;;;;;;;;;;8.90;99.90;;;;;;10535949;28;19924;-69
2021/01/29 22:45:25;;;;;;;;;;;8.90;99.90;;;;;;10534943;28;19953;-69
2021/01/29 22:50:27;;;;;;;;;;;8.90;99.90;;;;;;10535388;28;19928;-68
2021/01/29 22:55:29;;;;;;;;;;;9.00;99.90;;;;;;10535367;28;19970;-69
2021/01/29 23:00:35;;;;;;;;;;;9.00;99.90;;;;;;10534379;28;19924;-68
2021/01/29 23:05:40;;;;;;;;;;;9.00;99.90;;;;;;10534703;28;20016;-69
2021/01/29 23:10:42;;;;;;;;;;;8.90;99.90;;;;;;10533641;28;19982;-69
2021/01/29 23:15:44;;;;;;;;;;;9.10;99.90;;;;;;10533790;28;19978;-69
2021/01/29 23:20:49;;;;;;;;;;;9.00;99.90;;;;;;10533356;28;19979;-68
2021/01/29 23:25:52;;;;;;;;;;;9.10;99.90;;;;;;10534031;28;19973;-69
2021/01/29 23:30:53;;;;;;;;;;;9.10;99.90;;;;;;10533014;28;20403;-68
2021/01/29 23:35:55;;;;;;;;;;;9.00;99.90;;;;;;10532957;28;20007;-69
2021/01/29 23:40:56;;;;;;;;;;;9.00;99.90;;;;;;10532887;28;20159;-69
2021/01/29 23:45:58;;;;;;;;;;;9.00;99.90;;;;;;10533088;28;20422;-68
2021/01/29 23:50:59;;;;;;;;;;;8.90;99.90;;;;;;10533160;28;20038;-68
2021/01/29 23:56:01;;;;;;;;;;;8.90;99.90;;;;;;10532902;28;20513;-68
